Terminal Aerodrome Forecast
Issued by NWS Tampa Bay Area, FL

Home | Current Version | Previous Version | Text Only | Print | Product List | Glossary On
Versions: 1 2 3 4 5 6 7 8 9 10 11 12 13 14 15 16 17 18 19 20 21 22 23 24
117
FTUS42 KTBW 240522
TAFFMY
TAF
KFMY 240522Z 2406/2506 VRB05KT P6SM SKC
     FM241400 13007KT P6SM FEW250
     FM242000 28009KT P6SM SCT050 SCT250
     FM250100 VRB03KT P6SM FEW250=

USA.gov is the U.S. government's official web portal to all federal, state and local government web resources and services.